sensor_id;sensor_type;location;lat;lon;timestamp;P1;durP1;ratioP1;P2;durP2;ratioP2
38318;SDS011;24121;53.536;10.224;2023-03-01T11:30:38;12.25;;;7.95;;
38318;SDS011;24121;53.536;10.224;2023-03-01T11:36:01;9.80;;;7.15;;
38318;SDS011;24121;53.536;10.224;2023-03-01T11:38:30;9.98;;;7.22;;
38318;SDS011;24121;53.536;10.224;2023-03-01T11:41:13;10.38;;;7.65;;
38318;SDS011;24121;53.536;10.224;2023-03-01T11:51:14;13.33;;;7.20;;
38318;SDS011;24121;53.536;10.224;2023-03-01T11:56:47;9.05;;;7.22;;
38318;SDS011;24121;53.536;10.224;2023-03-01T12:01:48;11.60;;;7.93;;
38318;SDS011;24121;53.536;10.224;2023-03-01T12:04:26;13.57;;;8.13;;
38318;SDS011;24121;53.536;10.224;2023-03-01T12:07:24;12.10;;;8.73;;
38318;SDS011;24121;53.536;10.224;2023-03-01T12:12:31;14.60;;;9.43;;
38318;SDS011;24121;53.536;10.224;2023-03-01T12:17:48;11.05;;;8.73;;
38318;SDS011;24121;53.536;10.224;2023-03-01T12:20:28;13.55;;;9.18;;
38318;SDS011;24121;53.536;10.224;2023-03-01T12:28:41;13.10;;;9.75;;
38318;SDS011;24121;53.536;10.224;2023-03-01T12:39:57;11.48;;;7.70;;
38318;SDS011;24121;53.536;10.224;2023-03-01T12:45:54;11.23;;;7.75;;
38318;SDS011;24121;53.536;10.224;2023-03-01T12:51:24;7.32;;;6.05;;
38318;SDS011;24121;53.536;10.224;2023-03-01T12:53:51;8.57;;;6.05;;
38318;SDS011;24121;53.536;10.224;2023-03-01T12:56:22;9.65;;;6.47;;
38318;SDS011;24121;53.536;10.224;2023-03-01T12:59:01;10.27;;;5.70;;
38318;SDS011;24121;53.536;10.224;2023-03-01T13:17:47;6.80;;;4.97;;
38318;SDS011;24121;53.536;10.224;2023-03-01T13:20:18;8.18;;;5.93;;
38318;SDS011;24121;53.536;10.224;2023-03-01T13:22:46;6.13;;;5.15;;
38318;SDS011;24121;53.536;10.224;2023-03-01T13:25:15;9.60;;;3.97;;
38318;SDS011;24121;53.536;10.224;2023-03-01T13:27:43;7.38;;;4.70;;
38318;SDS011;24121;53.536;10.224;2023-03-01T13:30:38;5.97;;;4.40;;
38318;SDS011;24121;53.536;10.224;2023-03-01T13:35:48;6.40;;;5.18;;
38318;SDS011;24121;53.536;10.224;2023-03-01T13:41:05;8.52;;;6.53;;
38318;SDS011;24121;53.536;10.224;2023-03-01T13:43:37;7.95;;;5.57;;
38318;SDS011;24121;53.536;10.224;2023-03-01T13:46:11;7.32;;;5.30;;
38318;SDS011;24121;53.536;10.224;2023-03-01T13:48:42;10.52;;;6.35;;
38318;SDS011;24121;53.536;10.224;2023-03-01T13:51:10;7.25;;;5.50;;
38318;SDS011;24121;53.536;10.224;2023-03-01T13:53:39;8.18;;;5.50;;
38318;SDS011;24121;53.536;10.224;2023-03-01T13:56:13;7.13;;;5.10;;
38318;SDS011;24121;53.536;10.224;2023-03-01T13:59:15;6.80;;;5.30;;
38318;SDS011;24121;53.536;10.224;2023-03-01T14:01:39;5.93;;;4.40;;
38318;SDS011;24121;53.536;10.224;2023-03-01T14:07:20;7.75;;;5.10;;
38318;SDS011;24121;53.536;10.224;2023-03-01T14:09:48;6.15;;;4.75;;
38318;SDS011;24121;53.536;10.224;2023-03-01T14:19:57;5.05;;;4.10;;
38318;SDS011;24121;53.536;10.224;2023-03-01T14:25:00;4.68;;;3.25;;
38318;SDS011;24121;53.536;10.224;2023-03-01T14:27:30;6.72;;;4.60;;
38318;SDS011;24121;53.536;10.224;2023-03-01T14:30:20;8.95;;;5.20;;
38318;SDS011;24121;53.536;10.224;2023-03-01T14:32:54;6.50;;;4.53;;
38318;SDS011;24121;53.536;10.224;2023-03-01T14:35:22;7.78;;;5.07;;
38318;SDS011;24121;53.536;10.224;2023-03-01T14:37:49;7.30;;;5.13;;
38318;SDS011;24121;53.536;10.224;2023-03-01T14:40:31;5.63;;;4.00;;
38318;SDS011;24121;53.536;10.224;2023-03-01T14:42:59;6.43;;;4.88;;
38318;SDS011;24121;53.536;10.224;2023-03-01T14:45:26;6.68;;;4.38;;
38318;SDS011;24121;53.536;10.224;2023-03-01T14:47:53;7.28;;;5.70;;
38318;SDS011;24121;53.536;10.224;2023-03-01T14:50:26;7.93;;;5.97;;
38318;SDS011;24121;53.536;10.224;2023-03-01T14:52:56;8.32;;;6.90;;
38318;SDS011;24121;53.536;10.224;2023-03-01T14:55:37;7.45;;;6.20;;
38318;SDS011;24121;53.536;10.224;2023-03-01T14:58:08;7.05;;;4.25;;
38318;SDS011;24121;53.536;10.224;2023-03-01T15:00:36;6.38;;;5.00;;
38318;SDS011;24121;53.536;10.224;2023-03-01T15:03:11;7.45;;;5.03;;
38318;SDS011;24121;53.536;10.224;2023-03-01T15:05:39;6.60;;;4.85;;
38318;SDS011;24121;53.536;10.224;2023-03-01T15:08:04;5.45;;;4.20;;
38318;SDS011;24121;53.536;10.224;2023-03-01T15:10:31;5.20;;;4.00;;
38318;SDS011;24121;53.536;10.224;2023-03-01T15:13:19;4.30;;;3.55;;
38318;SDS011;24121;53.536;10.224;2023-03-01T15:15:47;5.45;;;3.95;;
38318;SDS011;24121;53.536;10.224;2023-03-01T15:18:17;4.60;;;3.38;;
38318;SDS011;24121;53.536;10.224;2023-03-01T15:20:44;5.18;;;4.00;;
38318;SDS011;24121;53.536;10.224;2023-03-01T15:23:22;4.25;;;3.40;;
38318;SDS011;24121;53.536;10.224;2023-03-01T15:25:52;4.80;;;3.50;;
38318;SDS011;24121;53.536;10.224;2023-03-01T15:28:22;5.40;;;4.30;;
38318;SDS011;24121;53.536;10.224;2023-03-01T15:30:53;5.97;;;4.35;;
38318;SDS011;24121;53.536;10.224;2023-03-01T15:35:50;5.43;;;4.22;;
38318;SDS011;24121;53.536;10.224;2023-03-01T15:41:19;5.75;;;3.80;;
38318;SDS011;24121;53.536;10.224;2023-03-01T15:43:47;6.05;;;4.00;;
38318;SDS011;24121;53.536;10.224;2023-03-01T15:46:28;5.60;;;3.38;;
38318;SDS011;24121;53.536;10.224;2023-03-01T15:49:04;4.57;;;3.08;;
38318;SDS011;24121;53.536;10.224;2023-03-01T15:51:32;5.85;;;3.50;;
38318;SDS011;24121;53.536;10.224;2023-03-01T15:54:01;5.20;;;4.07;;
38318;SDS011;24121;53.536;10.224;2023-03-01T15:56:28;5.28;;;4.13;;
38318;SDS011;24121;53.536;10.224;2023-03-01T15:58:57;5.75;;;4.22;;
38318;SDS011;24121;53.536;10.224;2023-03-01T16:01:23;6.75;;;4.72;;
38318;SDS011;24121;53.536;10.224;2023-03-01T16:03:49;7.28;;;5.10;;
38318;SDS011;24121;53.536;10.224;2023-03-01T16:06:14;6.97;;;5.20;;
38318;SDS011;24121;53.536;10.224;2023-03-01T16:08:39;7.10;;;5.40;;
38318;SDS011;24121;53.536;10.224;2023-03-01T16:11:13;9.23;;;4.82;;
38318;SDS011;24121;53.536;10.224;2023-03-01T16:13:40;6.90;;;5.18;;
38318;SDS011;24121;53.536;10.224;2023-03-01T16:16:05;8.73;;;5.63;;
38318;SDS011;24121;53.536;10.224;2023-03-01T16:18:30;6.72;;;5.25;;
38318;SDS011;24121;53.536;10.224;2023-03-01T16:20:56;6.28;;;4.70;;
38318;SDS011;24121;53.536;10.224;2023-03-01T16:23:21;5.80;;;4.65;;
38318;SDS011;24121;53.536;10.224;2023-03-01T16:25:49;5.38;;;4.18;;
38318;SDS011;24121;53.536;10.224;2023-03-01T16:28:15;6.10;;;4.55;;
38318;SDS011;24121;53.536;10.224;2023-03-01T16:30:44;5.07;;;3.47;;
38318;SDS011;24121;53.536;10.224;2023-03-01T16:33:11;4.85;;;3.50;;
38318;SDS011;24121;53.536;10.224;2023-03-01T16:35:39;6.40;;;4.07;;
38318;SDS011;24121;53.536;10.224;2023-03-01T16:38:04;6.38;;;3.97;;
38318;SDS011;24121;53.536;10.224;2023-03-01T16:40:30;5.85;;;3.53;;
38318;SDS011;24121;53.536;10.224;2023-03-01T16:42:56;6.57;;;3.75;;
38318;SDS011;24121;53.536;10.224;2023-03-01T16:45:25;4.97;;;3.40;;
38318;SDS011;24121;53.536;10.224;2023-03-01T16:47:51;5.82;;;3.67;;
38318;SDS011;24121;53.536;10.224;2023-03-01T16:50:17;7.13;;;4.30;;
38318;SDS011;24121;53.536;10.224;2023-03-01T16:52:42;7.15;;;4.15;;
38318;SDS011;24121;53.536;10.224;2023-03-01T16:55:08;6.05;;;4.63;;
38318;SDS011;24121;53.536;10.224;2023-03-01T16:57:34;5.28;;;4.28;;
38318;SDS011;24121;53.536;10.224;2023-03-01T17:00:00;8.15;;;5.30;;
38318;SDS011;24121;53.536;10.224;2023-03-01T17:02:33;8.13;;;6.10;;
38318;SDS011;24121;53.536;10.224;2023-03-01T17:04:59;5.20;;;4.68;;
38318;SDS011;24121;53.536;10.224;2023-03-01T17:07:24;8.35;;;5.10;;
38318;SDS011;24121;53.536;10.224;2023-03-01T17:09:49;5.80;;;4.80;;
38318;SDS011;24121;53.536;10.224;2023-03-01T17:12:15;6.53;;;4.57;;
38318;SDS011;24121;53.536;10.224;2023-03-01T17:14:41;7.22;;;5.25;;
38318;SDS011;24121;53.536;10.224;2023-03-01T17:17:07;9.50;;;6.38;;
38318;SDS011;24121;53.536;10.224;2023-03-01T17:19:33;9.05;;;6.65;;
38318;SDS011;24121;53.536;10.224;2023-03-01T17:22:00;13.20;;;10.23;;
38318;SDS011;24121;53.536;10.224;2023-03-01T17:24:26;10.60;;;8.35;;
38318;SDS011;24121;53.536;10.224;2023-03-01T17:26:52;7.70;;;5.97;;
38318;SDS011;24121;53.536;10.224;2023-03-01T17:29:17;8.20;;;6.07;;
38318;SDS011;24121;53.536;10.224;2023-03-01T17:31:42;7.75;;;6.03;;
38318;SDS011;24121;53.536;10.224;2023-03-01T17:34:08;10.32;;;6.32;;
38318;SDS011;24121;53.536;10.224;2023-03-01T17:36:33;7.95;;;5.85;;
38318;SDS011;24121;53.536;10.224;2023-03-01T17:39:08;11.18;;;8.40;;
38318;SDS011;24121;53.536;10.224;2023-03-01T17:41:36;9.32;;;7.03;;
38318;SDS011;24121;53.536;10.224;2023-03-01T17:44:01;9.20;;;6.32;;
38318;SDS011;24121;53.536;10.224;2023-03-01T17:46:27;7.80;;;6.32;;
38318;SDS011;24121;53.536;10.224;2023-03-01T17:48:52;6.72;;;5.55;;
38318;SDS011;24121;53.536;10.224;2023-03-01T17:51:17;9.52;;;7.72;;
38318;SDS011;24121;53.536;10.224;2023-03-01T17:53:43;9.30;;;6.82;;
38318;SDS011;24121;53.536;10.224;2023-03-01T17:56:08;10.18;;;6.78;;
38318;SDS011;24121;53.536;10.224;2023-03-01T17:58:34;9.30;;;7.65;;
38318;SDS011;24121;53.536;10.224;2023-03-01T18:01:09;10.60;;;7.13;;
38318;SDS011;24121;53.536;10.224;2023-03-01T18:03:36;9.02;;;6.93;;
38318;SDS011;24121;53.536;10.224;2023-03-01T18:06:02;8.48;;;6.95;;
38318;SDS011;24121;53.536;10.224;2023-03-01T18:08:27;10.43;;;8.40;;
38318;SDS011;24121;53.536;10.224;2023-03-01T18:10:58;11.77;;;8.93;;
38318;SDS011;24121;53.536;10.224;2023-03-01T18:13:24;15.00;;;10.85;;
38318;SDS011;24121;53.536;10.224;2023-03-01T18:15:49;11.52;;;9.02;;
38318;SDS011;24121;53.536;10.224;2023-03-01T18:18:14;17.83;;;15.18;;
38318;SDS011;24121;53.536;10.224;2023-03-01T18:20:40;16.27;;;13.70;;
38318;SDS011;24121;53.536;10.224;2023-03-01T18:23:05;11.18;;;8.93;;
38318;SDS011;24121;53.536;10.224;2023-03-01T18:25:31;12.18;;;9.90;;
38318;SDS011;24121;53.536;10.224;2023-03-01T18:27:56;12.23;;;9.05;;
38318;SDS011;24121;53.536;10.224;2023-03-01T18:30:22;12.98;;;10.00;;
38318;SDS011;24121;53.536;10.224;2023-03-01T18:32:47;17.25;;;11.40;;
38318;SDS011;24121;53.536;10.224;2023-03-01T18:35:13;14.48;;;11.48;;
38318;SDS011;24121;53.536;10.224;2023-03-01T18:37:38;17.70;;;12.00;;
38318;SDS011;24121;53.536;10.224;2023-03-01T18:40:04;15.02;;;11.80;;
38318;SDS011;24121;53.536;10.224;2023-03-01T18:42:31;13.98;;;10.25;;
38318;SDS011;24121;53.536;10.224;2023-03-01T18:44:57;15.65;;;11.70;;
38318;SDS011;24121;53.536;10.224;2023-03-01T18:47:22;14.15;;;9.98;;
38318;SDS011;24121;53.536;10.224;2023-03-01T18:49:47;16.42;;;10.93;;
38318;SDS011;24121;53.536;10.224;2023-03-01T18:52:13;14.68;;;10.93;;
38318;SDS011;24121;53.536;10.224;2023-03-01T18:54:38;18.08;;;12.25;;
38318;SDS011;24121;53.536;10.224;2023-03-01T18:57:03;20.25;;;13.45;;
38318;SDS011;24121;53.536;10.224;2023-03-01T18:59:29;17.80;;;13.38;;
38318;SDS011;24121;53.536;10.224;2023-03-01T19:01:54;17.20;;;12.93;;
38318;SDS011;24121;53.536;10.224;2023-03-01T19:04:20;20.45;;;13.95;;
38318;SDS011;24121;53.536;10.224;2023-03-01T19:06:45;21.27;;;15.40;;
38318;SDS011;24121;53.536;10.224;2023-03-01T19:09:10;21.33;;;14.77;;
38318;SDS011;24121;53.536;10.224;2023-03-01T19:11:36;24.02;;;16.75;;
38318;SDS011;24121;53.536;10.224;2023-03-01T19:14:01;27.75;;;19.45;;
38318;SDS011;24121;53.536;10.224;2023-03-01T19:16:29;25.90;;;17.90;;
38318;SDS011;24121;53.536;10.224;2023-03-01T19:18:56;29.88;;;20.15;;
38318;SDS011;24121;53.536;10.224;2023-03-01T19:21:23;36.17;;;19.40;;
38318;SDS011;24121;53.536;10.224;2023-03-01T19:23:50;28.42;;;18.02;;
38318;SDS011;24121;53.536;10.224;2023-03-01T19:26:17;28.63;;;19.17;;
38318;SDS011;24121;53.536;10.224;2023-03-01T19:28:44;29.40;;;20.48;;
38318;SDS011;24121;53.536;10.224;2023-03-01T19:31:12;32.40;;;20.85;;
38318;SDS011;24121;53.536;10.224;2023-03-01T19:33:39;31.63;;;20.90;;
38318;SDS011;24121;53.536;10.224;2023-03-01T19:36:05;43.28;;;21.83;;
38318;SDS011;24121;53.536;10.224;2023-03-01T19:38:32;32.47;;;21.25;;
38318;SDS011;24121;53.536;10.224;2023-03-01T19:40:57;37.65;;;24.17;;
38318;SDS011;24121;53.536;10.224;2023-03-01T19:43:23;32.05;;;21.92;;
38318;SDS011;24121;53.536;10.224;2023-03-01T19:45:49;32.85;;;22.20;;
38318;SDS011;24121;53.536;10.224;2023-03-01T19:48:17;34.58;;;19.52;;
38318;SDS011;24121;53.536;10.224;2023-03-01T19:50:43;33.38;;;21.95;;
38318;SDS011;24121;53.536;10.224;2023-03-01T19:53:09;36.38;;;22.58;;
38318;SDS011;24121;53.536;10.224;2023-03-01T19:55:36;37.53;;;23.52;;
38318;SDS011;24121;53.536;10.224;2023-03-01T19:58:01;33.92;;;22.55;;
38318;SDS011;24121;53.536;10.224;2023-03-01T20:00:27;47.22;;;24.27;;
38318;SDS011;24121;53.536;10.224;2023-03-01T20:02:52;33.60;;;19.05;;
38318;SDS011;24121;53.536;10.224;2023-03-01T20:05:17;32.30;;;20.63;;
38318;SDS011;24121;53.536;10.224;2023-03-01T20:07:43;30.73;;;20.45;;
38318;SDS011;24121;53.536;10.224;2023-03-01T20:10:08;43.40;;;20.63;;
38318;SDS011;24121;53.536;10.224;2023-03-01T20:12:35;41.90;;;20.33;;
38318;SDS011;24121;53.536;10.224;2023-03-01T20:15:01;50.53;;;19.35;;
38318;SDS011;24121;53.536;10.224;2023-03-01T20:17:26;38.33;;;20.40;;
38318;SDS011;24121;53.536;10.224;2023-03-01T20:19:51;31.83;;;19.50;;
38318;SDS011;24121;53.536;10.224;2023-03-01T20:22:17;45.10;;;20.40;;
38318;SDS011;24121;53.536;10.224;2023-03-01T20:24:42;35.78;;;20.33;;
38318;SDS011;24121;53.536;10.224;2023-03-01T20:27:08;38.80;;;19.13;;
38318;SDS011;24121;53.536;10.224;2023-03-01T20:29:33;40.90;;;20.05;;
38318;SDS011;24121;53.536;10.224;2023-03-01T20:31:59;33.65;;;19.48;;
38318;SDS011;24121;53.536;10.224;2023-03-01T20:34:24;33.97;;;19.92;;
38318;SDS011;24121;53.536;10.224;2023-03-01T20:36:49;55.50;;;21.95;;
38318;SDS011;24121;53.536;10.224;2023-03-01T20:39:15;36.75;;;21.02;;
38318;SDS011;24121;53.536;10.224;2023-03-01T20:41:40;30.40;;;19.40;;
38318;SDS011;24121;53.536;10.224;2023-03-01T20:44:06;47.67;;;19.75;;
38318;SDS011;24121;53.536;10.224;2023-03-01T20:46:32;35.13;;;18.90;;
38318;SDS011;24121;53.536;10.224;2023-03-01T20:48:58;56.13;;;21.63;;
38318;SDS011;24121;53.536;10.224;2023-03-01T20:51:24;29.40;;;18.55;;
38318;SDS011;24121;53.536;10.224;2023-03-01T20:53:49;35.13;;;19.30;;
38318;SDS011;24121;53.536;10.224;2023-03-01T20:56:15;32.08;;;17.83;;
38318;SDS011;24121;53.536;10.224;2023-03-01T20:58:42;29.83;;;19.95;;
38318;SDS011;24121;53.536;10.224;2023-03-01T21:01:09;27.63;;;18.25;;
38318;SDS011;24121;53.536;10.224;2023-03-01T21:03:35;31.58;;;19.25;;
38318;SDS011;24121;53.536;10.224;2023-03-01T21:06:01;35.25;;;19.90;;
38318;SDS011;24121;53.536;10.224;2023-03-01T21:08:28;33.42;;;18.85;;
38318;SDS011;24121;53.536;10.224;2023-03-01T21:10:54;26.92;;;17.67;;
38318;SDS011;24121;53.536;10.224;2023-03-01T21:13:20;66.78;;;18.70;;
38318;SDS011;24121;53.536;10.224;2023-03-01T21:18:25;39.15;;;19.85;;
38318;SDS011;24121;53.536;10.224;2023-03-01T21:21:02;34.97;;;19.27;;
38318;SDS011;24121;53.536;10.224;2023-03-01T21:23:35;46.17;;;21.77;;
38318;SDS011;24121;53.536;10.224;2023-03-01T21:26:03;30.55;;;19.40;;
38318;SDS011;24121;53.536;10.224;2023-03-01T21:28:48;36.80;;;20.50;;
38318;SDS011;24121;53.536;10.224;2023-03-01T21:31:16;32.60;;;19.83;;
38318;SDS011;24121;53.536;10.224;2023-03-01T21:33:50;37.22;;;19.15;;
38318;SDS011;24121;53.536;10.224;2023-03-01T21:36:16;63.45;;;21.08;;
38318;SDS011;24121;53.536;10.224;2023-03-01T21:38:43;40.20;;;21.13;;
38318;SDS011;24121;53.536;10.224;2023-03-01T21:41:26;35.30;;;19.30;;
38318;SDS011;24121;53.536;10.224;2023-03-01T21:43:54;46.13;;;22.20;;
38318;SDS011;24121;53.536;10.224;2023-03-01T21:46:24;52.13;;;21.02;;
38318;SDS011;24121;53.536;10.224;2023-03-01T21:48:50;37.78;;;19.17;;
38318;SDS011;24121;53.536;10.224;2023-03-01T21:51:17;50.28;;;22.60;;
38318;SDS011;24121;53.536;10.224;2023-03-01T21:53:45;50.28;;;22.58;;
38318;SDS011;24121;53.536;10.224;2023-03-01T21:56:18;82.30;;;24.42;;
38318;SDS011;24121;53.536;10.224;2023-03-01T21:58:44;45.92;;;22.85;;
38318;SDS011;24121;53.536;10.224;2023-03-01T22:01:11;51.38;;;21.75;;
38318;SDS011;24121;53.536;10.224;2023-03-01T22:03:40;45.42;;;21.48;;
38318;SDS011;24121;53.536;10.224;2023-03-01T22:08:46;66.57;;;24.55;;
38318;SDS011;24121;53.536;10.224;2023-03-01T22:13:38;49.20;;;21.52;;
38318;SDS011;24121;53.536;10.224;2023-03-01T22:16:04;40.28;;;20.85;;
38318;SDS011;24121;53.536;10.224;2023-03-01T22:18:30;38.58;;;22.35;;
38318;SDS011;24121;53.536;10.224;2023-03-01T22:20:55;34.88;;;20.58;;
38318;SDS011;24121;53.536;10.224;2023-03-01T22:23:20;39.42;;;24.60;;
38318;SDS011;24121;53.536;10.224;2023-03-01T22:25:46;36.33;;;21.45;;
38318;SDS011;24121;53.536;10.224;2023-03-01T22:28:11;34.85;;;21.48;;
38318;SDS011;24121;53.536;10.224;2023-03-01T22:30:37;39.80;;;21.15;;
38318;SDS011;24121;53.536;10.224;2023-03-01T22:33:02;39.17;;;22.92;;
38318;SDS011;24121;53.536;10.224;2023-03-01T22:35:27;40.97;;;23.23;;
